createdAt,value
2024-01-15T00:00:26.040Z,-0.51
2024-01-15T00:02:52.879Z,-0.47
2024-01-15T00:05:19.750Z,-0.37
2024-01-15T00:07:46.809Z,-0.54
2024-01-15T00:10:13.642Z,-0.59
2024-01-15T00:12:40.573Z,-0.53
2024-01-15T00:15:07.905Z,-0.72
2024-01-15T00:17:34.841Z,-0.82
2024-01-15T00:20:02.082Z,-0.80
2024-01-15T00:22:29.040Z,-0.84
2024-01-15T00:24:56.023Z,-0.81
2024-01-15T00:27:23.249Z,-0.77
2024-01-15T00:29:51.638Z,-0.82
2024-01-15T00:32:18.480Z,-0.83
2024-01-15T00:34:45.732Z,-0.96
2024-01-15T00:37:13.061Z,-0.76
2024-01-15T00:39:39.958Z,-0.90
2024-01-15T00:42:06.843Z,-0.95
2024-01-15T00:44:33.681Z,-1.09
2024-01-15T00:47:00.852Z,-0.98
2024-01-15T00:49:28.319Z,-1.03
2024-01-15T00:51:55.423Z,-1.07
2024-01-15T00:54:22.342Z,-1.07
2024-01-15T00:56:54.596Z,-1.14
2024-01-15T00:59:21.932Z,-1.09
2024-01-15T01:01:49.119Z,-0.95
2024-01-15T01:04:15.985Z,-1.14
2024-01-15T01:06:43.023Z,-1.10
2024-01-15T01:09:09.992Z,-1.12
2024-01-15T01:11:40.199Z,-0.97
2024-01-15T01:14:07.617Z,-1.28
2024-01-15T01:16:40.293Z,-1.29
2024-01-15T01:19:08.427Z,-1.42
2024-01-15T01:21:35.672Z,-1.35
2024-01-15T01:24:02.509Z,-1.18
2024-01-15T01:26:29.317Z,-0.93
2024-01-15T01:28:56.465Z,-1.19
2024-01-15T01:31:24.379Z,-1.04
2024-01-15T01:33:51.388Z,-1.12
2024-01-15T01:36:18.272Z,-1.11
2024-01-15T01:38:45.132Z,-1.31
2024-01-15T01:41:12.225Z,-1.45
2024-01-15T01:43:39.083Z,-1.52
2024-01-15T01:46:05.911Z,-1.47
2024-01-15T01:48:32.781Z,-1.29
2024-01-15T01:51:01.435Z,-1.55
2024-01-15T01:53:28.548Z,-1.21
2024-01-15T01:55:55.828Z,-1.50
2024-01-15T01:58:22.637Z,-1.74
2024-01-15T02:00:50.621Z,-1.57
2024-01-15T02:03:17.637Z,-1.79
2024-01-15T02:05:46.184Z,-1.95
2024-01-15T02:08:13.308Z,-1.98
2024-01-15T02:10:40.114Z,-2.12
2024-01-15T02:13:07.055Z,-1.99
2024-01-15T02:15:33.941Z,-2.07
2024-01-15T02:18:02.331Z,-1.95
2024-01-15T02:20:29.601Z,-1.96
2024-01-15T02:23:20.687Z,-2.03
2024-01-15T02:25:48.001Z,-2.08
2024-01-15T02:28:18.545Z,-1.95
2024-01-15T02:30:45.907Z,-1.66
2024-01-15T02:33:13.587Z,-1.89
2024-01-15T02:35:41.091Z,-2.07
2024-01-15T02:38:08.091Z,-1.98
2024-01-15T02:40:36.153Z,-1.91
2024-01-15T02:43:03.024Z,-2.21
2024-01-15T02:45:30.079Z,-2.08
2024-01-15T02:47:57.377Z,-2.12
2024-01-15T02:50:24.278Z,-2.03
2024-01-15T02:52:51.540Z,-2.08
2024-01-15T02:55:18.282Z,-1.91
2024-01-15T02:57:45.306Z,-1.88
2024-01-15T03:00:13.016Z,-1.89
2024-01-15T03:02:42.981Z,-1.98
2024-01-15T03:05:11.511Z,-1.96
2024-01-15T03:07:38.715Z,-1.96
2024-01-15T03:10:14.191Z,-1.94
2024-01-15T03:12:41.075Z,-2.00
2024-01-15T03:15:08.233Z,-2.15
2024-01-15T03:17:35.142Z,-1.96
2024-01-15T03:20:02.927Z,-2.16
2024-01-15T03:22:29.772Z,-2.23
2024-01-15T03:24:56.696Z,-2.15
2024-01-15T03:27:23.524Z,-2.18
2024-01-15T03:29:55.631Z,-1.98
2024-01-15T03:32:22.451Z,-2.06
2024-01-15T03:34:49.702Z,-2.13
2024-01-15T03:37:16.668Z,-2.24
2024-01-15T03:39:43.503Z,-2.41
2024-01-15T03:42:10.408Z,-2.54
2024-01-15T03:44:37.257Z,-2.50
2024-01-15T03:47:04.111Z,-2.47
2024-01-15T03:49:31.356Z,-2.38
2024-01-15T03:51:58.290Z,-2.37
2024-01-15T03:54:28.386Z,-2.54
2024-01-15T03:56:55.204Z,-2.45
2024-01-15T03:59:22.002Z,-2.49
2024-01-15T04:01:52.174Z,-2.40
2024-01-15T04:04:19.615Z,-2.57
2024-01-15T04:06:46.742Z,-2.37
2024-01-15T04:09:14.926Z,-2.25
2024-01-15T04:11:41.859Z,-2.14
2024-01-15T04:14:08.601Z,-2.33
2024-01-15T04:16:35.834Z,-2.31
2024-01-15T04:19:02.844Z,-2.20
2024-01-15T04:21:29.889Z,-1.97
2024-01-15T04:23:56.671Z,-2.05
2024-01-15T04:26:23.547Z,-2.03
2024-01-15T04:28:50.851Z,-1.93
2024-01-15T04:31:28.845Z,-1.85
2024-01-15T04:33:56.073Z,-2.00
2024-01-15T04:36:26.324Z,-2.14
2024-01-15T04:38:53.122Z,-2.19
2024-01-15T04:41:20.081Z,-2.09
2024-01-15T04:43:47.757Z,-1.98
2024-01-15T04:46:14.614Z,-1.93
2024-01-15T04:48:41.554Z,-1.94
2024-01-15T04:51:10.354Z,-1.87
2024-01-15T04:53:37.329Z,-1.87
2024-01-15T04:56:04.371Z,-1.81
2024-01-15T04:58:31.562Z,-2.14
2024-01-15T05:01:01.427Z,-1.87
2024-01-15T05:03:28.475Z,-1.84
2024-01-15T05:05:55.408Z,-1.83
2024-01-15T05:08:22.531Z,-1.73
2024-01-15T05:10:49.733Z,-1.79
2024-01-15T05:13:16.582Z,-1.98
2024-01-15T05:15:43.563Z,-1.86
2024-01-15T05:18:11.167Z,-1.87
2024-01-15T05:20:38.085Z,-1.89
2024-01-15T05:23:07.654Z,-1.64
2024-01-15T05:25:34.886Z,-1.71
2024-01-15T05:28:01.680Z,-1.66
2024-01-15T05:30:28.795Z,-1.64
2024-01-15T05:32:55.935Z,-1.73
2024-01-15T05:35:22.805Z,-1.93
2024-01-15T05:37:49.904Z,-1.90
2024-01-15T05:40:16.755Z,-1.73
2024-01-15T05:42:43.672Z,-1.67
2024-01-15T05:45:10.825Z,-1.71
2024-01-15T05:47:37.888Z,-1.45
2024-01-15T05:50:06.547Z,-1.67
2024-01-15T05:52:33.829Z,-1.66
2024-01-15T05:55:00.718Z,-1.64
2024-01-15T05:57:27.662Z,-1.58
2024-01-15T05:59:54.599Z,-1.54
2024-01-15T06:02:22.736Z,-1.50
2024-01-15T06:04:49.715Z,-1.44
2024-01-15T06:07:16.858Z,-1.58
2024-01-15T06:09:43.700Z,-1.55
2024-01-15T06:12:13.870Z,-1.60
2024-01-15T06:14:40.763Z,-1.78
2024-01-15T06:17:07.695Z,-1.62
2024-01-15T06:19:37.606Z,-1.49
2024-01-15T06:22:05.272Z,-1.25
2024-01-15T06:24:32.363Z,-1.47
2024-01-15T06:26:59.357Z,-1.63
2024-01-15T06:29:29.350Z,-1.33
2024-01-15T06:31:56.262Z,-1.52
2024-01-15T06:34:23.380Z,-1.43
2024-01-15T06:36:50.348Z,-1.63
2024-01-15T06:39:17.492Z,-1.72
2024-01-15T06:41:47.006Z,-1.56
2024-01-15T06:44:14.219Z,-1.53
2024-01-15T06:46:44.461Z,-1.63
2024-01-15T06:49:11.893Z,-1.73
2024-01-15T06:51:39.466Z,-1.76
2024-01-15T06:54:06.488Z,-1.96
2024-01-15T06:56:33.472Z,-1.72
2024-01-15T06:59:00.369Z,-1.92
2024-01-15T07:01:27.353Z,-1.80
2024-01-15T07:03:54.633Z,-1.80
2024-01-15T07:06:22.035Z,-1.78
2024-01-15T07:08:48.875Z,-1.58
2024-01-15T07:11:15.753Z,-1.83
2024-01-15T07:13:42.833Z,-1.65
2024-01-15T07:16:09.971Z,-1.82
2024-01-15T07:18:36.930Z,-1.74
2024-01-15T07:21:04.088Z,-1.57
2024-01-15T07:23:32.416Z,-1.72
2024-01-15T07:25:59.235Z,-1.83
2024-01-15T07:28:26.046Z,-1.76
2024-01-15T07:30:53.560Z,-1.77
2024-01-15T07:33:21.424Z,-1.57
2024-01-15T07:35:48.272Z,-1.71
2024-01-15T07:38:15.139Z,-1.54
2024-01-15T07:40:42.049Z,-1.66
2024-01-15T07:43:10.136Z,-1.67
2024-01-15T07:45:37.396Z,-1.65
2024-01-15T07:48:05.169Z,-1.42
2024-01-15T07:50:32.119Z,-1.55
2024-01-15T07:53:00.078Z,-1.56
2024-01-15T07:55:27.770Z,-1.49
2024-01-15T07:58:11.118Z,-1.46
2024-01-15T08:00:42.362Z,-1.11
2024-01-15T08:03:11.664Z,-1.28
2024-01-15T08:05:41.609Z,-1.39
2024-01-15T08:08:08.440Z,-1.52
2024-01-15T08:10:35.308Z,-1.37
2024-01-15T08:13:02.564Z,-1.33
2024-01-15T08:15:31.522Z,-1.56
2024-01-15T08:17:59.881Z,-1.34
2024-01-15T08:20:27.277Z,-1.54
2024-01-15T08:22:54.435Z,-1.50
2024-01-15T08:25:22.153Z,-1.50
2024-01-15T08:27:49.115Z,-1.08
2024-01-15T08:30:16.283Z,-0.56
2024-01-15T08:32:44.100Z,0.24
2024-01-15T08:35:11.536Z,0.56
2024-01-15T08:37:39.504Z,1.02
2024-01-15T08:40:08.340Z,0.59
2024-01-15T08:42:35.416Z,-0.05
2024-01-15T08:45:03.001Z,0.07
2024-01-15T08:47:29.910Z,0.15
2024-01-15T08:49:56.800Z,0.06
2024-01-15T08:52:23.692Z,-0.64
2024-01-15T08:54:50.554Z,-0.63
2024-01-15T08:57:17.492Z,-0.32
2024-01-15T08:59:44.487Z,-0.49
2024-01-15T09:02:11.238Z,-0.53
2024-01-15T09:04:38.278Z,-0.64
2024-01-15T09:07:05.639Z,-0.58
2024-01-15T09:09:32.499Z,-0.65
2024-01-15T09:11:59.390Z,-0.43
2024-01-15T09:14:35.692Z,-0.28
2024-01-15T09:17:05.863Z,-0.48
2024-01-15T09:19:32.962Z,-0.59
2024-01-15T09:22:00.338Z,-0.43
2024-01-15T09:24:28.567Z,-0.05
2024-01-15T09:26:56.401Z,0.16
2024-01-15T09:29:25.218Z,-0.07
2024-01-15T09:31:52.769Z,-0.06
2024-01-15T09:34:20.234Z,-0.06
2024-01-15T09:36:47.268Z,-0.15
2024-01-15T09:39:14.217Z,-0.08
2024-01-15T09:41:41.097Z,-0.20
2024-01-15T09:44:10.728Z,-0.15
2024-01-15T09:46:37.509Z,-0.21
2024-01-15T09:49:04.391Z,-0.39
2024-01-15T09:51:34.645Z,-0.10
2024-01-15T09:54:02.894Z,-0.31
2024-01-15T09:56:29.782Z,-0.01
2024-01-15T09:58:58.478Z,-0.09
2024-01-15T10:01:25.714Z,-0.15
2024-01-15T10:03:52.668Z,0.05
2024-01-15T10:06:22.148Z,0.22
2024-01-15T10:08:59.845Z,0.43
2024-01-15T10:11:27.047Z,0.78
2024-01-15T10:13:57.561Z,0.91
2024-01-15T10:16:25.155Z,1.38
2024-01-15T10:18:52.629Z,1.33
2024-01-15T10:21:19.520Z,1.67
2024-01-15T10:23:46.321Z,1.90
2024-01-15T10:26:19.208Z,1.27
2024-01-15T10:28:46.483Z,1.14
2024-01-15T10:31:13.279Z,1.82
2024-01-15T10:33:40.303Z,1.78
2024-01-15T10:36:07.650Z,2.01
2024-01-15T10:38:34.555Z,2.49
2024-01-15T10:41:01.344Z,2.38
2024-01-15T10:43:29.560Z,2.10
2024-01-15T10:45:56.935Z,1.83
2024-01-15T10:48:24.280Z,1.95
2024-01-15T10:50:51.333Z,2.39
2024-01-15T10:53:18.339Z,2.02
2024-01-15T10:55:45.591Z,1.86
2024-01-15T10:58:12.545Z,1.74
2024-01-15T11:00:39.678Z,1.59
2024-01-15T11:03:07.270Z,1.41
2024-01-15T11:05:43.762Z,1.08
2024-01-15T11:08:10.894Z,1.43
2024-01-15T11:10:53.122Z,1.75
2024-01-15T11:13:27.168Z,1.19
2024-01-15T11:16:06.175Z,1.26
2024-01-15T11:18:41.283Z,0.94
2024-01-15T11:21:08.762Z,0.94
2024-01-15T11:23:50.568Z,0.73
2024-01-15T11:26:38.403Z,0.79
2024-01-15T11:29:07.494Z,0.87
2024-01-15T11:31:48.172Z,0.76
2024-01-15T11:34:15.163Z,0.62
2024-01-15T11:36:51.598Z,0.66
2024-01-15T11:39:31.778Z,0.55
2024-01-15T11:42:02.499Z,0.52
2024-01-15T11:44:29.357Z,0.24
2024-01-15T11:47:16.488Z,0.38
2024-01-15T11:50:15.572Z,0.61
2024-01-15T11:52:42.425Z,0.46
2024-01-15T11:55:12.070Z,0.67
2024-01-15T11:57:55.751Z,0.64
2024-01-15T12:00:23.648Z,0.49
2024-01-15T12:02:50.719Z,0.84
2024-01-15T12:05:19.432Z,0.79
2024-01-15T12:07:47.374Z,0.57
2024-01-15T12:10:17.696Z,0.66
2024-01-15T12:13:02.224Z,0.60
2024-01-15T12:15:30.136Z,0.93
2024-01-15T12:18:00.886Z,0.92
2024-01-15T12:20:28.012Z,0.85
2024-01-15T12:23:01.500Z,1.14
2024-01-15T12:25:30.638Z,0.93
2024-01-15T12:27:57.797Z,1.17
2024-01-15T12:30:24.892Z,0.76
2024-01-15T12:32:52.044Z,0.62
2024-01-15T12:35:18.985Z,0.28
2024-01-15T12:37:47.659Z,0.38
2024-01-15T12:40:20.761Z,0.50
2024-01-15T12:42:47.808Z,0.44
2024-01-15T12:45:14.993Z,0.27
2024-01-15T12:47:42.577Z,0.17
2024-01-15T12:50:16.596Z,0.25
2024-01-15T12:52:46.867Z,-0.12
2024-01-15T12:55:15.950Z,-0.03
2024-01-15T12:57:43.155Z,0.01
2024-01-15T13:00:14.583Z,0.07
2024-01-15T13:02:43.361Z,0.02
2024-01-15T13:05:12.959Z,-0.02
2024-01-15T13:07:40.736Z,0.30
2024-01-15T13:10:07.983Z,0.11
2024-01-15T13:12:38.973Z,0.11
2024-01-15T13:15:06.296Z,0.03
2024-01-15T13:17:33.298Z,0.25
2024-01-15T13:20:01.489Z,0.38
2024-01-15T13:22:33.553Z,0.20
2024-01-15T13:25:02.025Z,0.03
2024-01-15T13:27:29.888Z,-0.03
2024-01-15T13:29:56.950Z,-0.01
2024-01-15T13:32:27.705Z,0.08
2024-01-15T13:34:56.772Z,-0.04
2024-01-15T13:37:25.817Z,0.07
2024-01-15T13:39:53.978Z,-0.24
2024-01-15T13:42:23.605Z,-0.26
2024-01-15T13:44:50.767Z,-0.28
2024-01-15T13:47:17.730Z,-0.32
2024-01-15T13:49:44.633Z,-0.29
2024-01-15T13:52:11.464Z,-0.42
2024-01-15T13:54:48.023Z,-0.38
2024-01-15T13:57:18.080Z,-0.12
2024-01-15T13:59:45.180Z,-0.20
2024-01-15T14:02:18.190Z,-0.20
2024-01-15T14:04:49.142Z,0.13
2024-01-15T14:07:19.292Z,0.04
2024-01-15T14:09:46.568Z,0.15
2024-01-15T14:12:13.624Z,0.11
2024-01-15T14:14:41.612Z,0.12
2024-01-15T14:17:11.138Z,0.11
2024-01-15T14:19:40.735Z,-0.05
2024-01-15T14:22:07.855Z,-0.21
2024-01-15T14:24:36.019Z,-0.09
2024-01-15T14:27:02.777Z,0.02
2024-01-15T14:29:29.792Z,0.09
2024-01-15T14:31:56.735Z,0.07
2024-01-15T14:34:27.250Z,0.17
2024-01-15T14:36:59.926Z,0.27
2024-01-15T14:39:29.986Z,0.12
2024-01-15T14:41:56.852Z,0.22
2024-01-15T14:44:23.934Z,0.03
2024-01-15T14:46:51.419Z,0.01
2024-01-15T14:49:18.909Z,0.22
2024-01-15T14:51:46.234Z,0.25
2024-01-15T14:54:13.128Z,0.32
2024-01-15T14:56:40.085Z,0.56
2024-01-15T14:59:06.965Z,0.48
2024-01-15T15:01:34.035Z,0.38
2024-01-15T15:04:01.056Z,0.34
2024-01-15T15:06:29.548Z,0.29
2024-01-15T15:08:58.873Z,0.26
2024-01-15T15:11:29.647Z,0.26
2024-01-15T15:13:56.600Z,0.23
2024-01-15T15:16:23.424Z,0.36
2024-01-15T15:18:50.684Z,0.62
2024-01-15T15:21:17.915Z,0.59
2024-01-15T15:23:45.094Z,0.60
2024-01-15T15:26:13.610Z,0.81
2024-01-15T15:28:40.463Z,0.99
2024-01-15T15:31:12.892Z,0.63
2024-01-15T15:33:40.230Z,0.42
2024-01-15T15:36:07.612Z,0.74
2024-01-15T15:38:35.901Z,0.47
2024-01-15T15:41:02.792Z,0.36
2024-01-15T15:43:29.785Z,0.50
2024-01-15T15:45:57.376Z,0.38
2024-01-15T15:48:24.548Z,0.55
2024-01-15T15:50:52.516Z,0.51
2024-01-15T15:53:23.437Z,0.49
2024-01-15T15:55:50.664Z,0.38
2024-01-15T15:58:17.450Z,0.49
2024-01-15T16:00:44.389Z,0.35
2024-01-15T16:03:11.224Z,0.19
2024-01-15T16:05:45.577Z,0.17
2024-01-15T16:08:19.064Z,0.40
2024-01-15T16:10:47.414Z,0.26
2024-01-15T16:13:15.292Z,0.39
2024-01-15T16:15:42.271Z,0.23
2024-01-15T16:23:19.052Z,0.21
2024-01-15T16:23:33.470Z,0.02
2024-01-15T16:24:08.193Z,0.00
2024-01-15T16:26:29.777Z,-0.04
2024-01-15T16:28:58.039Z,-0.05
2024-01-15T16:31:25.228Z,-0.08
2024-01-15T16:33:55.575Z,0.11
2024-01-15T16:36:26.519Z,0.22
2024-01-15T16:38:53.605Z,0.23
2024-01-15T16:41:20.516Z,0.16
2024-01-15T16:43:47.624Z,0.24
2024-01-15T16:46:14.450Z,0.07
2024-01-15T16:48:41.323Z,0.14
2024-01-15T16:51:08.203Z,0.13
2024-01-15T16:53:35.112Z,0.18
2024-01-15T16:56:02.089Z,0.05
2024-01-15T16:58:28.940Z,0.19
2024-01-15T17:00:55.762Z,0.24
2024-01-15T17:03:22.965Z,0.05
2024-01-15T17:05:49.821Z,0.37
2024-01-15T17:08:19.236Z,0.36
2024-01-15T17:10:46.057Z,0.41
2024-01-15T17:13:12.885Z,0.51
2024-01-15T17:15:41.038Z,0.39
2024-01-15T17:18:08.846Z,0.52
2024-01-15T17:20:35.912Z,0.47
2024-01-15T17:23:02.829Z,0.85
2024-01-15T17:25:31.755Z,0.81
2024-01-15T17:27:58.611Z,0.75
2024-01-15T17:30:25.716Z,0.89
2024-01-15T17:32:52.720Z,0.93
2024-01-15T17:35:19.936Z,0.73
2024-01-15T17:37:46.856Z,0.84
2024-01-15T17:40:13.637Z,0.61
2024-01-15T17:42:40.481Z,0.95
2024-01-15T17:45:12.505Z,1.05
2024-01-15T17:47:42.413Z,0.89
2024-01-15T17:50:09.527Z,0.79
2024-01-15T17:52:37.642Z,0.96
2024-01-15T17:55:04.776Z,0.94
2024-01-15T17:57:31.566Z,1.10
2024-01-15T17:59:58.672Z,1.21
2024-01-15T18:02:25.589Z,1.15
2024-01-15T18:04:58.569Z,0.90
2024-01-15T18:07:25.793Z,1.08
2024-01-15T18:09:56.590Z,0.85
2024-01-15T18:12:25.329Z,0.76
2024-01-15T18:14:52.163Z,0.61
2024-01-15T18:17:19.093Z,0.73
2024-01-15T18:19:45.974Z,0.54
2024-01-15T18:22:14.260Z,0.49
2024-01-15T18:24:41.164Z,0.43
2024-01-15T18:27:09.595Z,0.51
2024-01-15T18:29:36.480Z,0.39
2024-01-15T18:32:04.010Z,0.24
2024-01-15T18:34:31.012Z,0.28
2024-01-15T18:36:58.082Z,0.44
2024-01-15T18:39:24.976Z,0.34
2024-01-15T18:41:54.627Z,0.18
2024-01-15T18:44:23.017Z,0.26
2024-01-15T18:46:50.218Z,0.08
2024-01-15T18:49:19.685Z,-0.03
2024-01-15T18:51:49.254Z,0.11
2024-01-15T18:54:17.224Z,0.02
2024-01-15T18:56:44.763Z,0.09
2024-01-15T18:59:12.660Z,0.10
2024-01-15T19:01:39.754Z,0.09
2024-01-15T19:04:06.592Z,0.18
2024-01-15T19:06:33.421Z,0.16
2024-01-15T19:09:00.266Z,0.20
2024-01-15T19:11:27.468Z,0.15
2024-01-15T19:13:54.664Z,0.23
2024-01-15T19:16:24.377Z,0.28
2024-01-15T19:18:52.228Z,0.28
2024-01-15T19:21:19.211Z,0.36
2024-01-15T19:23:46.084Z,0.30
2024-01-15T19:26:20.263Z,0.35
2024-01-15T19:28:47.568Z,0.35
2024-01-15T19:31:14.503Z,0.29
2024-01-15T19:33:43.713Z,0.34
2024-01-15T19:36:22.220Z,0.36
2024-01-15T19:38:49.661Z,0.37
2024-01-15T19:41:16.898Z,0.33
2024-01-15T19:43:43.718Z,0.35
2024-01-15T19:46:10.536Z,0.70
2024-01-15T19:48:37.942Z,0.34
2024-01-15T19:51:05.090Z,0.40
2024-01-15T19:53:31.874Z,0.61
2024-01-15T19:55:59.082Z,0.57
2024-01-15T19:58:25.949Z,0.61
2024-01-15T20:00:53.059Z,0.32
2024-01-15T20:03:19.910Z,0.45
2024-01-15T20:05:52.418Z,0.21
2024-01-15T20:08:19.501Z,-0.06
2024-01-15T20:10:46.379Z,-0.02
2024-01-15T20:13:13.105Z,0.13
2024-01-15T20:15:45.488Z,0.06
2024-01-15T20:18:12.463Z,0.14
2024-01-15T20:20:44.208Z,0.26
2024-01-15T20:23:11.217Z,0.29
2024-01-15T20:25:38.571Z,0.25
2024-01-15T20:28:08.320Z,0.30
2024-01-15T20:30:35.069Z,0.42
2024-01-15T20:33:02.292Z,0.27
2024-01-15T20:35:30.075Z,0.27
2024-01-15T20:37:58.628Z,0.24
2024-01-15T20:40:25.784Z,0.25
2024-01-15T20:42:52.676Z,0.18
2024-01-15T20:45:19.626Z,0.13
2024-01-15T20:47:46.443Z,0.16
2024-01-15T20:50:13.732Z,0.09
2024-01-15T20:52:40.679Z,0.18
2024-01-15T20:55:07.903Z,0.18
2024-01-15T20:57:34.796Z,0.29
2024-01-15T21:00:01.674Z,0.21
2024-01-15T21:02:28.934Z,0.02
2024-01-15T21:04:56.540Z,0.18
2024-01-15T21:07:29.256Z,0.06
2024-01-15T21:09:56.317Z,0.32
2024-01-15T21:12:23.242Z,0.11
2024-01-15T21:14:50.193Z,0.18
2024-01-15T21:17:17.059Z,0.29
2024-01-15T21:19:47.012Z,0.50
2024-01-15T21:22:13.990Z,0.50
2024-01-15T21:24:40.823Z,0.47
2024-01-15T21:27:07.572Z,0.27
2024-01-15T21:29:34.414Z,0.30
2024-01-15T21:32:01.288Z,0.36
2024-01-15T21:34:28.211Z,0.54
2024-01-15T21:36:55.346Z,0.48
2024-01-15T21:39:22.184Z,0.43
2024-01-15T21:41:50.626Z,0.49
2024-01-15T21:44:20.671Z,0.60
2024-01-15T21:46:47.594Z,0.71
2024-01-15T21:49:14.707Z,0.68
2024-01-15T21:51:41.512Z,0.71
2024-01-15T21:54:08.841Z,0.72
2024-01-15T21:56:35.682Z,0.68
2024-01-15T21:59:02.500Z,0.77
2024-01-15T22:01:29.761Z,0.85
2024-01-15T22:03:59.703Z,0.51
2024-01-15T22:06:26.692Z,0.65
2024-01-15T22:08:53.712Z,0.34
2024-01-15T22:11:20.609Z,0.52
2024-01-15T22:13:47.433Z,0.57
2024-01-15T22:16:14.536Z,0.70
2024-01-15T22:18:41.439Z,0.71
2024-01-15T22:21:08.309Z,0.78
2024-01-15T22:23:35.170Z,0.74
2024-01-15T22:26:02.540Z,0.40
2024-01-15T22:28:32.272Z,0.44
2024-01-15T22:30:59.407Z,0.52
2024-01-15T22:33:26.329Z,0.60
2024-01-15T22:35:53.308Z,0.65
2024-01-15T22:38:20.163Z,0.67
2024-01-15T22:40:46.991Z,0.49
2024-01-15T22:43:13.815Z,0.59
2024-01-15T22:45:40.722Z,0.45
2024-01-15T22:48:08.385Z,0.54
2024-01-15T22:50:35.400Z,0.54
2024-01-15T22:53:02.279Z,0.74
2024-01-15T22:55:29.216Z,0.68
2024-01-15T22:57:59.282Z,0.67
2024-01-15T23:00:26.102Z,0.68
2024-01-15T23:03:00.846Z,0.53
2024-01-15T23:05:28.231Z,0.54
2024-01-15T23:07:58.396Z,0.53
2024-01-15T23:10:25.265Z,0.58
2024-01-15T23:12:52.458Z,0.60
2024-01-15T23:15:19.439Z,0.50
2024-01-15T23:17:47.552Z,0.73
2024-01-15T23:20:14.524Z,0.30
2024-01-15T23:22:41.375Z,0.22
2024-01-15T23:25:09.182Z,0.40
2024-01-15T23:27:39.560Z,0.19
2024-01-15T23:30:07.107Z,0.16
2024-01-15T23:32:34.146Z,0.30
2024-01-15T23:35:02.544Z,0.08
2024-01-15T23:37:30.326Z,0.12
2024-01-15T23:39:57.601Z,0.30
2024-01-15T23:42:27.840Z,0.33
2024-01-15T23:44:54.673Z,0.26
2024-01-15T23:47:21.528Z,0.21
2024-01-15T23:49:48.373Z,0.08
2024-01-15T23:52:15.453Z,0.13
2024-01-15T23:54:42.261Z,0.11
2024-01-15T23:57:09.111Z,0.08
2024-01-15T23:59:38.988Z,0.02
